Cape Hatteras, North Carolina
Current Conditions -  °F | °C
As of 3:51 AM on Thursday 23 Oct 2014 (Local Time) from KHSE Reporting Station
Scattered Clouds Scattered Clouds  
Wind Chill: 55°   Ceiling: Unl
Heat Index: 55°   Visibility: 10mi
Dew Point: 48°   Wind: 15mph
Humidity: 77%   Direction: 320°NW
Pressure: 29.88"   Gusts: 24mph
Location:  35.23°N, 75.62°W
Report Text: KHSE 230751Z AUTO 32013G21KT 10SM FEW022 SCT028 13/09 A2988 RMK AO2 SLP118 T01280089 TSNO
Loading
Personal Weather Stations






























Interactive Weather Map New forecast layout! Learn more

10-Day Weather Forecast

Advertisements
Track Severe Weather on mobile